createdAt,value
2018-05-12T00:00:02.187Z,11.57
2018-05-12T00:02:29.748Z,11.40
2018-05-12T00:04:57.290Z,11.33
2018-05-12T00:07:24.856Z,11.37
2018-05-12T00:09:52.397Z,11.57
2018-05-12T00:12:20.727Z,12.07
2018-05-12T00:14:48.267Z,11.13
2018-05-12T00:17:15.841Z,11.77
2018-05-12T00:19:43.380Z,11.77
2018-05-12T00:22:10.961Z,11.73
2018-05-12T00:24:38.516Z,11.77
2018-05-12T00:27:06.082Z,11.17
2018-05-12T00:29:33.621Z,11.70
2018-05-12T00:32:01.193Z,12.13
2018-05-12T00:34:28.728Z,12.43
2018-05-12T00:36:57.057Z,12.50
2018-05-12T00:39:24.596Z,13.20
2018-05-12T00:41:52.159Z,12.00
2018-05-12T00:44:19.687Z,12.70
2018-05-12T00:46:47.256Z,11.83
2018-05-12T00:49:14.794Z,13.47
2018-05-12T00:51:43.120Z,12.23
2018-05-12T00:54:10.656Z,12.87
2018-05-12T00:56:38.218Z,12.13
2018-05-12T00:59:05.749Z,12.90
2018-05-12T01:01:34.128Z,12.77
2018-05-12T01:04:02.433Z,12.07
2018-05-12T01:06:30.004Z,12.67
2018-05-12T01:08:57.565Z,13.27
2018-05-12T01:11:25.101Z,13.17
2018-05-12T01:13:53.437Z,12.73
2018-05-12T01:16:20.967Z,13.07
2018-05-12T01:18:48.534Z,13.10
2018-05-12T01:21:16.078Z,14.10
2018-05-12T01:23:43.651Z,13.87
2018-05-12T01:26:11.217Z,13.37
2018-05-12T01:28:38.772Z,13.63
2018-05-12T01:31:06.313Z,13.07
2018-05-12T01:33:33.886Z,12.70
2018-05-12T01:36:01.433Z,13.13
2018-05-12T01:38:28.999Z,13.80
2018-05-12T01:40:56.539Z,12.93
2018-05-12T01:43:24.856Z,13.77
2018-05-12T01:45:52.410Z,14.13
2018-05-12T01:48:19.979Z,12.60
2018-05-12T01:50:47.509Z,12.93
2018-05-12T01:53:15.068Z,12.87
2018-05-12T01:55:42.610Z,13.33
2018-05-12T01:58:10.946Z,13.40
2018-05-12T02:00:38.517Z,12.03
2018-05-12T02:03:06.093Z,12.77
2018-05-12T02:05:33.620Z,11.93
2018-05-12T02:08:01.191Z,12.63
2018-05-12T02:10:28.731Z,13.00
2018-05-12T02:12:56.293Z,12.27
2018-05-12T02:15:23.823Z,12.77
2018-05-12T02:17:52.144Z,11.97
2018-05-12T02:20:19.684Z,12.27
2018-05-12T02:22:47.251Z,11.70
2018-05-12T02:25:14.786Z,11.87
2018-05-12T02:27:42.357Z,12.20
2018-05-12T02:30:09.897Z,11.87
2018-05-12T02:32:38.230Z,12.80
2018-05-12T02:35:05.770Z,12.37
2018-05-12T02:37:33.329Z,12.40
2018-05-12T02:40:00.889Z,12.33
2018-05-12T02:42:28.429Z,12.50
2018-05-12T02:44:55.996Z,11.27
2018-05-12T02:47:23.539Z,12.53
2018-05-12T02:49:51.869Z,13.10
2018-05-12T02:52:19.408Z,12.37
2018-05-12T02:54:46.973Z,12.47
2018-05-12T02:57:14.535Z,12.63
2018-05-12T02:59:42.109Z,12.40
2018-05-12T03:02:09.640Z,12.37
2018-05-12T03:04:37.209Z,12.43
2018-05-12T03:07:04.744Z,12.10
2018-05-12T03:09:32.303Z,12.03
2018-05-12T03:11:59.850Z,12.70
2018-05-12T03:14:28.190Z,11.93
2018-05-12T03:16:55.721Z,11.77
2018-05-12T03:19:23.284Z,11.50
2018-05-12T03:21:51.746Z,12.30
2018-05-12T03:24:20.082Z,11.53
2018-05-12T03:26:47.619Z,11.57
2018-05-12T03:29:15.176Z,11.03
2018-05-12T03:31:42.744Z,11.63
2018-05-12T03:34:10.286Z,11.37
2018-05-12T03:36:37.850Z,11.67
2018-05-12T03:39:05.389Z,12.00
2018-05-12T03:41:32.960Z,11.10
2018-05-12T03:44:00.488Z,11.40
2018-05-12T03:46:28.052Z,11.30
2018-05-12T03:48:56.352Z,11.50
2018-05-12T03:51:23.913Z,11.93
2018-05-12T03:53:51.448Z,11.50
2018-05-12T03:56:19.795Z,13.52
2018-05-12T03:58:47.329Z,12.17
2018-05-12T04:01:14.883Z,11.57
2018-05-12T04:03:42.438Z,11.33
2018-05-12T04:06:21.773Z,11.53
2018-05-12T04:09:02.060Z,11.80
2018-05-12T04:11:41.436Z,11.53
2018-05-12T04:14:09.008Z,11.63
2018-05-12T04:16:37.304Z,11.87
2018-05-12T04:19:04.911Z,11.50
2018-05-12T04:21:32.453Z,11.67
2018-05-12T04:24:00.018Z,10.77
2018-05-12T04:26:27.540Z,11.13
2018-05-12T04:28:55.099Z,11.23
2018-05-12T04:31:22.638Z,11.67
2018-05-12T04:33:50.973Z,11.00
2018-05-12T04:36:18.505Z,10.90
2018-05-12T04:38:46.072Z,10.77
2018-05-12T04:41:13.609Z,11.30
2018-05-12T04:43:41.938Z,11.00
2018-05-12T04:46:09.477Z,10.37
2018-05-12T04:48:37.038Z,10.93
2018-05-12T04:51:04.572Z,11.13
2018-05-12T04:53:32.145Z,10.33
2018-05-12T04:55:59.685Z,11.27
2018-05-12T04:58:28.007Z,10.93
2018-05-12T05:00:55.538Z,10.17
2018-05-12T05:03:23.118Z,10.80
2018-05-12T05:05:50.652Z,11.20
2018-05-12T05:08:19.029Z,10.50
2018-05-12T05:10:46.553Z,10.83
2018-05-12T05:13:14.086Z,11.63
2018-05-12T05:15:41.656Z,10.47
2018-05-12T05:18:09.204Z,10.90
2018-05-12T05:20:36.778Z,10.70
2018-05-12T05:23:04.305Z,11.27
2018-05-12T05:25:31.860Z,11.27
2018-05-12T05:27:59.408Z,11.27
2018-05-12T05:30:27.736Z,11.80
2018-05-12T05:32:55.273Z,11.23
2018-05-12T05:35:22.839Z,11.67
2018-05-12T05:37:50.373Z,11.67
2018-05-12T05:40:18.703Z,12.03
2018-05-12T05:42:46.237Z,11.63
2018-05-12T05:45:13.803Z,11.00
2018-05-12T05:47:41.346Z,11.23
2018-05-12T05:50:08.996Z,12.37
2018-05-12T05:52:36.486Z,11.73
2018-05-12T05:55:04.056Z,11.47
2018-05-12T05:57:31.601Z,12.17
2018-05-12T05:59:59.173Z,12.10
2018-05-12T06:02:26.704Z,12.60
2018-05-12T06:04:54.269Z,12.53
2018-05-12T06:07:21.806Z,12.47
2018-05-12T06:09:49.377Z,12.57
2018-05-12T06:12:16.921Z,11.80
2018-05-12T06:14:45.231Z,12.30
2018-05-12T06:17:12.799Z,12.77
2018-05-12T06:19:40.345Z,12.40
2018-05-12T06:22:07.920Z,12.70
2018-05-12T06:24:35.456Z,12.77
2018-05-12T06:27:03.028Z,12.73
2018-05-12T06:29:30.574Z,12.77
2018-05-12T06:31:58.176Z,12.57
2018-05-12T06:34:25.718Z,12.33
2018-05-12T06:36:53.292Z,12.27
2018-05-12T06:39:20.831Z,12.80
2018-05-12T06:41:48.399Z,12.70
2018-05-12T06:44:15.954Z,12.57
2018-05-12T06:46:43.521Z,12.53
2018-05-12T06:49:11.086Z,12.07
2018-05-12T06:51:38.648Z,11.10
2018-05-12T06:54:06.187Z,12.50
2018-05-12T06:56:33.761Z,11.60
2018-05-12T06:59:01.294Z,11.67
2018-05-12T07:01:29.648Z,11.67
2018-05-12T07:03:57.193Z,10.33
2018-05-12T07:06:24.762Z,11.13
2018-05-12T07:08:52.315Z,11.20
2018-05-12T07:11:19.894Z,10.40
2018-05-12T07:13:47.457Z,11.23
2018-05-12T07:16:15.025Z,11.30
2018-05-12T07:18:43.353Z,10.77
2018-05-12T07:21:10.918Z,10.60
2018-05-12T07:23:38.479Z,10.53
2018-05-12T07:26:06.068Z,10.33
2018-05-12T07:28:33.646Z,10.33
2018-05-12T07:31:01.953Z,10.27
2018-05-12T07:33:29.510Z,9.83
2018-05-12T07:35:57.037Z,10.70
2018-05-12T07:38:24.613Z,10.90
2018-05-12T07:40:52.954Z,11.00
2018-05-12T07:43:20.538Z,11.00
2018-05-12T07:45:48.118Z,11.73
2018-05-12T07:48:16.456Z,10.53
2018-05-12T07:50:43.981Z,10.70
2018-05-12T07:53:12.312Z,10.73
2018-05-12T07:55:39.854Z,11.17
2018-05-12T07:58:07.418Z,11.27
2018-05-12T08:00:34.959Z,11.23
2018-05-12T08:03:02.525Z,10.40
2018-05-12T08:05:30.082Z,10.60
2018-05-12T08:07:57.643Z,9.97
2018-05-12T08:10:25.184Z,9.67
2018-05-12T08:12:52.760Z,9.63
2018-05-12T08:15:20.321Z,10.07
2018-05-12T08:17:47.891Z,8.97
2018-05-12T08:20:15.431Z,8.73
2018-05-12T08:22:43.009Z,8.10
2018-05-12T08:25:10.543Z,8.20
2018-05-12T08:27:38.105Z,9.00
2018-05-12T08:30:05.643Z,9.27
2018-05-12T08:32:33.975Z,9.10
2018-05-12T08:35:01.586Z,9.33
2018-05-12T08:37:29.105Z,8.47
2018-05-12T08:39:56.645Z,8.20
2018-05-12T08:42:24.216Z,7.57
2018-05-12T08:44:51.770Z,7.50
2018-05-12T08:47:19.335Z,7.40
2018-05-12T08:49:46.879Z,8.23
2018-05-12T08:52:14.439Z,8.17
2018-05-12T08:54:41.984Z,8.13
2018-05-12T08:57:10.296Z,8.03
2018-05-12T08:59:37.913Z,8.23
2018-05-12T09:02:05.447Z,7.83
2018-05-12T09:04:33.771Z,8.40
2018-05-12T09:07:01.305Z,8.37
2018-05-12T09:09:28.869Z,9.03
2018-05-12T09:11:56.408Z,9.37
2018-05-12T09:14:24.738Z,9.33
2018-05-12T09:16:52.281Z,9.03
2018-05-12T09:19:19.864Z,8.07
2018-05-12T09:21:47.385Z,8.90
2018-05-12T09:24:14.945Z,9.00
2018-05-12T09:26:42.476Z,8.90
2018-05-12T09:29:10.040Z,8.30
2018-05-12T09:31:37.580Z,9.00
2018-05-12T09:34:05.149Z,8.17
2018-05-12T09:36:32.678Z,9.50
2018-05-12T09:39:00.241Z,8.87
2018-05-12T09:41:27.766Z,9.13
2018-05-12T09:43:55.329Z,9.07
2018-05-12T09:46:22.864Z,9.13
2018-05-12T09:48:50.439Z,9.17
2018-05-12T09:51:17.981Z,9.43
2018-05-12T09:53:46.335Z,9.00
2018-05-12T09:56:13.873Z,8.37
2018-05-12T09:58:41.431Z,8.10
2018-05-12T10:01:08.958Z,8.20
2018-05-12T10:03:36.541Z,8.33
2018-05-12T10:06:04.073Z,8.50
2018-05-12T10:08:32.448Z,7.63
2018-05-12T10:11:00.735Z,7.80
2018-05-12T10:13:29.065Z,7.80
2018-05-12T10:15:56.603Z,7.77
2018-05-12T10:18:24.168Z,8.33
2018-05-12T10:20:51.696Z,8.40
2018-05-12T10:23:19.256Z,7.67
2018-05-12T10:25:46.777Z,7.70
2018-05-12T10:28:14.324Z,7.33
2018-05-12T10:30:41.857Z,8.00
2018-05-12T10:33:09.396Z,7.10
2018-05-12T10:35:37.722Z,6.90
2018-05-12T10:38:05.251Z,7.40
2018-05-12T10:40:32.811Z,7.37
2018-05-12T10:43:00.338Z,6.10
2018-05-12T10:45:27.988Z,6.70
2018-05-12T10:47:55.458Z,6.70
2018-05-12T10:50:23.029Z,7.30
2018-05-12T10:52:51.338Z,7.47
2018-05-12T10:55:18.928Z,6.90
2018-05-12T10:57:46.499Z,7.37
2018-05-12T11:00:14.091Z,6.50
2018-05-12T11:02:42.405Z,7.30
2018-05-12T11:05:09.970Z,7.60
2018-05-12T11:07:37.502Z,7.73
2018-05-12T11:10:05.073Z,8.33
2018-05-12T11:12:32.622Z,8.13
2018-05-12T11:15:00.186Z,9.13
2018-05-12T11:17:27.725Z,8.53
2018-05-12T11:19:56.067Z,7.60
2018-05-12T11:22:23.614Z,7.73
2018-05-12T11:24:51.174Z,8.03
2018-05-12T11:27:18.704Z,8.50
2018-05-12T11:29:46.271Z,8.07
2018-05-12T11:32:13.858Z,6.97
2018-05-12T11:34:41.373Z,7.17
2018-05-12T11:37:09.686Z,7.30
2018-05-12T11:39:37.253Z,7.60
2018-05-12T11:42:04.792Z,7.53
2018-05-12T11:44:32.412Z,7.63
2018-05-12T11:46:59.887Z,7.70
2018-05-12T11:49:27.516Z,6.60
2018-05-12T11:51:55.056Z,7.87
2018-05-12T11:54:22.617Z,7.90
2018-05-12T11:56:50.165Z,7.97
2018-05-12T11:59:17.725Z,7.73
2018-05-12T12:01:45.268Z,7.37
2018-05-12T12:04:12.812Z,6.60
2018-05-12T12:06:40.380Z,6.33
2018-05-12T12:09:07.919Z,5.40
2018-05-12T12:11:35.485Z,5.70
2018-05-12T12:14:03.027Z,5.73
2018-05-12T12:16:30.678Z,6.57
2018-05-12T12:18:58.152Z,6.30
2018-05-12T12:21:25.716Z,6.80
2018-05-12T12:23:53.255Z,5.97
2018-05-12T12:26:20.814Z,6.00
2018-05-12T12:28:48.354Z,5.45
2018-05-12T12:31:15.931Z,5.20
2018-05-12T12:33:43.719Z,5.05
2018-05-12T12:36:11.292Z,5.37
2018-05-12T12:38:39.605Z,4.62
2018-05-12T12:41:07.173Z,5.25
2018-05-12T12:43:34.714Z,6.47
2018-05-12T12:46:02.290Z,6.78
2018-05-12T12:48:29.833Z,6.43
2018-05-12T12:50:57.396Z,6.72
2018-05-12T12:53:24.934Z,5.55
2018-05-12T12:55:53.281Z,5.78
2018-05-12T12:58:20.859Z,6.43
2018-05-12T13:00:48.430Z,5.72
2018-05-12T13:03:15.975Z,5.43
2018-05-12T13:05:43.542Z,6.53
2018-05-12T13:08:11.072Z,6.35
2018-05-12T13:10:38.645Z,6.03
2018-05-12T13:13:06.186Z,5.85
2018-05-12T13:15:33.760Z,6.72
2018-05-12T13:18:01.330Z,5.97
2018-05-12T13:20:28.893Z,6.85
2018-05-12T13:22:56.430Z,6.15
2018-05-12T13:25:23.987Z,7.65
2018-05-12T13:27:51.543Z,7.72
2018-05-12T13:30:19.103Z,8.18
2018-05-12T13:32:46.646Z,7.90
2018-05-12T13:35:14.173Z,7.60
2018-05-12T13:37:42.500Z,8.05
2018-05-12T13:40:10.041Z,7.97
2018-05-12T13:42:37.604Z,7.70
2018-05-12T13:45:05.153Z,7.87
2018-05-12T13:47:32.776Z,8.70
2018-05-12T13:50:00.321Z,8.48
2018-05-12T13:52:27.880Z,8.77
2018-05-12T13:54:55.424Z,8.43
2018-05-12T13:57:22.991Z,8.85
2018-05-12T13:59:50.525Z,8.50
2018-05-12T14:02:18.108Z,8.75
2018-05-12T14:04:45.641Z,8.57
2018-05-12T14:07:13.208Z,8.15
2018-05-12T14:09:40.752Z,9.52
2018-05-12T14:12:09.099Z,9.25
2018-05-12T14:14:36.645Z,8.95
2018-05-12T14:17:04.213Z,8.63
2018-05-12T14:19:31.784Z,9.50
2018-05-12T14:22:00.153Z,8.68
2018-05-12T14:24:27.688Z,8.70
2018-05-12T14:26:55.252Z,8.27
2018-05-12T14:29:22.795Z,8.00
2018-05-12T14:31:50.354Z,7.65
2018-05-12T14:34:17.902Z,8.07
2018-05-12T14:36:45.469Z,8.45
2018-05-12T14:39:13.013Z,9.20
2018-05-12T14:41:41.351Z,8.48
2018-05-12T14:44:08.897Z,9.02
2018-05-12T14:46:36.466Z,8.73
2018-05-12T14:49:04.008Z,9.48
2018-05-12T14:51:31.605Z,8.60
2018-05-12T14:53:59.151Z,9.35
2018-05-12T14:56:26.715Z,8.63
2018-05-12T14:58:54.258Z,8.63
2018-05-12T15:01:21.830Z,9.43
2018-05-12T15:03:49.373Z,7.65
2018-05-12T15:06:16.961Z,9.45
2018-05-12T15:08:44.496Z,8.85
2018-05-12T15:11:12.045Z,9.15
2018-05-12T15:13:39.613Z,9.48
2018-05-12T15:16:07.172Z,9.38
2018-05-12T15:18:34.746Z,10.10
2018-05-12T15:21:02.290Z,9.23
2018-05-12T15:23:29.870Z,10.65
2018-05-12T15:25:57.413Z,9.88
2018-05-12T15:28:24.991Z,10.98
2018-05-12T15:30:52.533Z,10.73
2018-05-12T15:33:20.125Z,10.80
2018-05-12T15:35:47.673Z,9.98
2018-05-12T15:38:15.246Z,10.68
2018-05-12T15:40:42.798Z,10.98
2018-05-12T15:43:10.362Z,10.02
2018-05-12T15:45:37.911Z,11.93
2018-05-12T15:48:05.489Z,11.70
2018-05-12T15:50:33.038Z,11.40
2018-05-12T15:53:00.613Z,12.18
2018-05-12T15:55:28.161Z,11.98
2018-05-12T15:57:55.803Z,12.68
2018-05-12T16:00:23.336Z,13.18
2018-05-12T16:02:50.915Z,13.25
2018-05-12T16:05:18.462Z,12.98
2018-05-12T16:07:46.041Z,13.05
2018-05-12T16:10:13.589Z,13.38
2018-05-12T16:12:41.158Z,13.38
2018-05-12T16:15:08.705Z,13.20
2018-05-12T16:17:36.276Z,13.75
2018-05-12T16:20:03.826Z,12.70
2018-05-12T16:22:31.393Z,13.52
2018-05-12T16:24:58.928Z,12.73
2018-05-12T16:27:26.510Z,13.75
2018-05-12T16:29:54.055Z,14.80
2018-05-12T16:32:21.637Z,13.77
2018-05-12T16:34:49.190Z,13.93
2018-05-12T16:37:16.745Z,13.13
2018-05-12T16:39:44.322Z,14.13
2018-05-12T16:42:11.863Z,14.40
2018-05-12T16:44:39.472Z,14.70
2018-05-12T16:47:07.006Z,13.80
2018-05-12T16:49:34.580Z,13.75
2018-05-12T16:52:02.210Z,14.40
2018-05-12T16:54:30.555Z,14.32
2018-05-12T16:56:58.109Z,15.20
2018-05-12T16:59:25.689Z,13.88
2018-05-12T17:01:53.230Z,14.35
2018-05-12T17:04:20.804Z,13.98
2018-05-12T17:06:48.362Z,13.85
2018-05-12T17:09:15.928Z,14.73
2018-05-12T17:11:43.483Z,14.57
2018-05-12T17:14:11.058Z,15.48
2018-05-12T17:16:38.614Z,14.85
2018-05-12T17:19:06.190Z,14.82
2018-05-12T17:21:33.729Z,15.00
2018-05-12T17:24:01.292Z,15.27
2018-05-12T17:26:28.833Z,14.02
2018-05-12T17:28:56.407Z,14.87
2018-05-12T17:31:23.949Z,15.48
2018-05-12T17:33:51.523Z,14.50
2018-05-12T17:36:19.833Z,15.23
2018-05-12T17:38:47.411Z,15.27
2018-05-12T17:41:14.953Z,14.00
2018-05-12T17:43:42.530Z,14.87
2018-05-12T17:46:10.081Z,15.47
2018-05-12T17:48:37.641Z,15.10
2018-05-12T17:51:05.190Z,15.23
2018-05-12T17:53:33.522Z,15.60
2018-05-12T17:56:01.072Z,16.40
2018-05-12T17:58:28.642Z,17.00
2018-05-12T18:00:56.186Z,14.90
2018-05-12T18:03:23.757Z,14.80
2018-05-12T18:05:51.337Z,15.27
2018-05-12T18:08:18.880Z,14.87
2018-05-12T18:10:46.456Z,16.07
2018-05-12T18:13:14.002Z,15.27
2018-05-12T18:15:41.577Z,15.20
2018-05-12T18:18:09.125Z,15.73
2018-05-12T18:20:36.699Z,15.80
2018-05-12T18:23:04.280Z,14.63
2018-05-12T18:25:31.820Z,15.10
2018-05-12T18:27:59.368Z,15.27
2018-05-12T18:30:26.949Z,14.97
2018-05-12T18:32:54.494Z,14.57
2018-05-12T18:35:22.872Z,15.43
2018-05-12T18:37:50.413Z,15.80
2018-05-12T18:40:17.990Z,14.67
2018-05-12T18:42:45.542Z,15.57
2018-05-12T18:45:13.114Z,15.13
2018-05-12T18:47:40.661Z,15.00
2018-05-12T18:50:08.234Z,15.43
2018-05-12T18:52:35.775Z,15.90
2018-05-12T18:55:03.350Z,16.30
2018-05-12T18:57:30.895Z,15.50
2018-05-12T18:59:58.469Z,15.97
2018-05-12T19:02:26.026Z,15.43
2018-05-12T19:04:53.607Z,15.90
2018-05-12T19:07:21.154Z,15.10
2018-05-12T19:09:48.735Z,15.10
2018-05-12T19:12:16.295Z,15.97
2018-05-12T19:14:43.871Z,15.93
2018-05-12T19:17:11.454Z,15.57
2018-05-12T19:19:39.024Z,15.77
2018-05-12T19:22:06.575Z,15.73
2018-05-12T19:24:34.141Z,16.80
2018-05-12T19:27:01.693Z,16.93
2018-05-12T19:29:29.257Z,16.70
2018-05-12T19:31:56.794Z,15.93
2018-05-12T19:34:24.339Z,17.27
2018-05-12T19:36:51.910Z,16.13
2018-05-12T19:39:20.224Z,17.17
2018-05-12T19:41:47.795Z,16.17
2018-05-12T19:44:15.332Z,15.87
2018-05-12T19:46:42.905Z,16.47
2018-05-12T19:49:10.455Z,17.07
2018-05-12T19:51:38.033Z,17.17
2018-05-12T19:54:05.583Z,15.70
2018-05-12T19:56:33.165Z,16.10
2018-05-12T19:59:00.718Z,16.63
2018-05-12T20:01:28.299Z,16.33
2018-05-12T20:03:55.858Z,15.57
2018-05-12T20:06:23.426Z,16.03
2018-05-12T20:08:50.976Z,15.60
2018-05-12T20:11:18.545Z,16.00
2018-05-12T20:13:46.099Z,16.37
2018-05-12T20:16:13.672Z,14.90
2018-05-12T20:18:41.220Z,15.83
2018-05-12T20:21:08.794Z,14.90
2018-05-12T20:23:36.344Z,15.80
2018-05-12T20:26:03.918Z,15.60
2018-05-12T20:28:31.474Z,14.67
2018-05-12T20:30:59.074Z,15.17
2018-05-12T20:33:26.621Z,15.20
2018-05-12T20:35:54.958Z,14.43
2018-05-12T20:38:22.511Z,15.30
2018-05-12T20:40:50.105Z,14.97
2018-05-12T20:43:17.646Z,15.00
2018-05-12T20:45:45.231Z,15.60
2018-05-12T20:48:12.772Z,14.17
2018-05-12T20:50:40.353Z,14.17
2018-05-12T20:53:08.662Z,14.63
2018-05-12T20:55:36.205Z,14.10
2018-05-12T20:58:03.772Z,14.37
2018-05-12T21:00:31.308Z,14.27
2018-05-12T21:02:58.945Z,14.10
2018-05-12T21:05:26.451Z,13.37
2018-05-12T21:07:54.030Z,13.17
2018-05-12T21:10:21.572Z,14.83
2018-05-12T21:12:49.146Z,14.53
2018-05-12T21:15:16.745Z,14.17
2018-05-12T21:17:44.327Z,13.73
2018-05-12T21:20:11.873Z,14.37
2018-05-12T21:22:39.457Z,14.57
2018-05-12T21:25:07.003Z,15.30
2018-05-12T21:27:34.580Z,14.80
2018-05-12T21:30:02.114Z,15.03
2018-05-12T21:32:29.696Z,14.00
2018-05-12T21:34:57.226Z,15.63
2018-05-12T21:37:24.804Z,15.07
2018-05-12T21:39:52.359Z,16.03
2018-05-12T21:42:19.905Z,16.00
2018-05-12T21:44:47.475Z,15.47
2018-05-12T21:47:15.022Z,15.27
2018-05-12T21:49:42.597Z,15.83
2018-05-12T21:52:10.145Z,16.43
2018-05-12T21:54:37.713Z,16.50
2018-05-12T21:57:05.264Z,15.30
2018-05-12T21:59:32.847Z,16.83
2018-05-12T22:02:00.384Z,16.57
2018-05-12T22:04:27.958Z,16.13
2018-05-12T22:06:55.522Z,15.73
2018-05-12T22:09:23.135Z,15.97
2018-05-12T22:11:50.686Z,16.37
2018-05-12T22:14:18.266Z,16.43
2018-05-12T22:16:45.809Z,16.67
2018-05-12T22:19:13.386Z,15.53
2018-05-12T22:21:40.925Z,15.83
2018-05-12T22:24:08.500Z,16.20
2018-05-12T22:26:36.045Z,15.43
2018-05-12T22:29:03.626Z,16.27
2018-05-12T22:31:31.194Z,16.43
2018-05-12T22:33:58.767Z,16.30
2018-05-12T22:36:26.308Z,15.70
2018-05-12T22:38:53.878Z,16.33
2018-05-12T22:41:21.429Z,15.87
2018-05-12T22:43:48.992Z,15.83
2018-05-12T22:46:16.535Z,16.00
2018-05-12T22:48:44.085Z,16.37
2018-05-12T22:51:11.659Z,16.10
2018-05-12T22:53:39.224Z,15.87
2018-05-12T22:56:06.784Z,16.27
2018-05-12T22:58:34.330Z,16.37
2018-05-12T23:01:01.927Z,16.40
2018-05-12T23:03:29.472Z,16.03
2018-05-12T23:05:57.040Z,16.83
2018-05-12T23:08:24.595Z,15.77
2018-05-12T23:10:52.181Z,16.30
2018-05-12T23:13:19.730Z,15.67
2018-05-12T23:15:47.305Z,16.27
2018-05-12T23:18:14.841Z,16.53
2018-05-12T23:20:42.410Z,16.57
2018-05-12T23:23:09.950Z,15.47
2018-05-12T23:25:37.546Z,17.00
2018-05-12T23:28:05.089Z,16.77
2018-05-12T23:30:32.666Z,16.90
2018-05-12T23:33:00.213Z,16.40
2018-05-12T23:35:27.777Z,15.90
2018-05-12T23:37:55.392Z,15.80
2018-05-12T23:40:22.894Z,15.57
2018-05-12T23:42:50.475Z,16.00
2018-05-12T23:45:18.019Z,16.23
2018-05-12T23:47:45.606Z,16.80
2018-05-12T23:50:13.159Z,16.57
2018-05-12T23:52:40.736Z,16.07
2018-05-12T23:55:08.285Z,16.07
2018-05-12T23:57:35.875Z,16.73
